Kirby, Wyoming
Current Conditions -  °F | °C
As of 10:53 PM on Sunday 21 Dec 2014 (Local Time) from KWRL Reporting Station
Few Clouds Few Clouds  
Wind Chill: 34°   Ceiling: Unl
Heat Index: 34°   Visibility: 10mi
Dew Point: 28°   Wind: 0mph
Humidity: 79%   Direction: NA
Pressure: 29.72"   Gusts: NA
Location:  43.8°N, 108.18°W
Report Text: KWRL 220553Z AUTO 00000KT 10SM FEW095 01/M02 A2972 RMK AO2 SLP091 60004 T00111022 10028 20006 51021
Loading
Personal Weather Stations






























Interactive Weather Map New forecast layout! Learn more

10-Day Weather Forecast

Advertisements
Track Severe Weather on mobile